createdAt,value
2018-07-11T00:00:53.425Z,71.90
2018-07-11T00:01:56.843Z,72.00
2018-07-11T00:03:00.449Z,72.10
2018-07-11T00:04:04.703Z,72.10
2018-07-11T00:05:09.251Z,72.00
2018-07-11T00:06:14.726Z,72.00
2018-07-11T00:07:18.159Z,72.00
2018-07-11T00:08:21.553Z,71.90
2018-07-11T00:09:24.944Z,71.70
2018-07-11T00:10:29.350Z,71.80
2018-07-11T00:12:35.872Z,71.80
2018-07-11T00:13:40.008Z,71.80
2018-07-11T00:14:43.451Z,71.90
2018-07-11T00:17:59.216Z,71.90
2018-07-11T00:19:02.591Z,71.90
2018-07-11T00:20:07.067Z,72.00
2018-07-11T00:21:11.506Z,72.20
2018-07-11T00:23:18.035Z,72.10
2018-07-11T00:24:21.427Z,72.00
2018-07-11T00:25:26.927Z,72.10
2018-07-11T00:26:31.380Z,72.20
2018-07-11T00:27:34.824Z,72.10
2018-07-11T00:30:45.486Z,71.80
2018-07-11T00:31:48.904Z,71.80
2018-07-11T00:32:52.330Z,71.80
2018-07-11T00:33:55.715Z,71.90
2018-07-11T00:34:59.129Z,72.00
2018-07-11T00:38:09.592Z,72.40
2018-07-11T00:39:13.007Z,72.50
2018-07-11T00:40:18.161Z,72.60
2018-07-11T00:41:23.310Z,72.60
2018-07-11T00:42:26.735Z,72.50
2018-07-11T00:43:33.244Z,72.40
2018-07-11T00:44:38.825Z,72.50
2018-07-11T00:46:46.859Z,72.70
2018-07-11T00:47:50.789Z,72.70
2018-07-11T00:48:54.855Z,72.80
2018-07-11T00:49:58.918Z,72.90
2018-07-11T00:51:05.212Z,73.00
2018-07-11T00:52:08.649Z,73.10
2018-07-11T00:53:12.717Z,73.10
2018-07-11T00:54:16.127Z,73.10
2018-07-11T00:55:21.520Z,73.10
2018-07-11T00:56:25.321Z,73.10
2018-07-11T00:57:28.761Z,73.30
2018-07-11T00:59:48.115Z,73.30
2018-07-11T01:01:08.376Z,73.50
2018-07-11T01:02:11.800Z,73.60
2018-07-11T01:03:15.247Z,73.70
2018-07-11T01:04:18.663Z,73.90
2018-07-11T01:05:23.187Z,74.00
2018-07-11T01:06:27.755Z,74.10
2018-07-11T01:07:31.236Z,74.40
2018-07-11T01:08:37.191Z,74.50
2018-07-11T01:09:46.024Z,74.60
2018-07-11T01:10:50.497Z,74.60
2018-07-11T01:11:53.916Z,74.50
2018-07-11T01:12:57.333Z,74.80
2018-07-11T01:14:00.761Z,75.00
2018-07-11T01:15:04.794Z,75.10
2018-07-11T01:16:09.275Z,75.10
2018-07-11T01:18:15.612Z,75.30
2018-07-11T01:19:19.687Z,75.40
2018-07-11T01:20:24.038Z,75.60
2018-07-11T01:21:28.889Z,75.70
2018-07-11T01:22:32.279Z,75.80
2018-07-11T01:23:35.719Z,75.90
2018-07-11T01:25:43.297Z,76.00
2018-07-11T01:26:46.719Z,76.10
2018-07-11T01:27:50.111Z,76.20
2018-07-11T01:28:53.726Z,76.30
2018-07-11T01:29:57.109Z,76.30
2018-07-11T01:31:01.498Z,76.40
2018-07-11T01:32:04.959Z,76.40
2018-07-11T01:33:08.343Z,76.70
2018-07-11T01:34:11.723Z,76.80
2018-07-11T01:35:16.365Z,76.80
2018-07-11T01:36:20.964Z,76.90
2018-07-11T01:37:24.407Z,76.90
2018-07-11T01:38:27.803Z,77.00
2018-07-11T01:39:31.200Z,76.90
2018-07-11T01:41:38.315Z,77.00
2018-07-11T01:42:41.727Z,76.70
2018-07-11T01:43:45.828Z,76.60
2018-07-11T01:44:49.239Z,76.60
2018-07-11T01:45:53.633Z,76.80
2018-07-11T01:46:57.047Z,76.80
2018-07-11T01:48:00.457Z,76.90
2018-07-11T01:49:03.891Z,77.10
2018-07-11T01:50:08.612Z,77.10
2018-07-11T01:51:13.013Z,77.30
2018-07-11T01:52:58.455Z,77.50
2018-07-11T01:54:01.896Z,77.50
2018-07-11T01:55:06.517Z,77.40
2018-07-11T01:56:11.036Z,77.50
2018-07-11T01:57:14.463Z,77.50
2018-07-11T01:58:17.855Z,77.50
2018-07-11T01:59:21.587Z,77.50
2018-07-11T02:00:27.997Z,77.60
2018-07-11T02:01:31.535Z,77.70
2018-07-11T02:02:34.927Z,77.60
2018-07-11T02:04:42.103Z,77.80
2018-07-11T02:05:46.648Z,78.20
2018-07-11T02:06:50.071Z,78.40
2018-07-11T02:07:53.941Z,78.50
2018-07-11T02:08:57.445Z,78.70
2018-07-11T02:10:00.883Z,78.80
2018-07-11T02:11:05.201Z,78.90
2018-07-11T02:12:08.612Z,78.90
2018-07-11T02:13:12.016Z,79.10
2018-07-11T02:14:15.443Z,79.10
2018-07-11T02:15:20.653Z,79.10
2018-07-11T02:16:24.981Z,79.20
2018-07-11T02:19:34.571Z,79.40
2018-07-11T02:20:39.551Z,79.40
2018-07-11T02:21:43.015Z,80.20
2018-07-11T02:22:50.339Z,79.60
2018-07-11T02:23:53.951Z,79.70
2018-07-11T02:24:57.348Z,79.80
2018-07-11T02:26:01.773Z,79.90
2018-07-11T02:27:05.247Z,79.90
2018-07-11T02:28:08.647Z,80.00
2018-07-11T02:29:12.268Z,80.00
2018-07-11T02:31:20.631Z,80.10
2018-07-11T02:32:24.067Z,80.10
2018-07-11T02:33:27.467Z,80.20
2018-07-11T02:35:37.812Z,80.30
2018-07-11T02:36:41.257Z,80.40
2018-07-11T02:37:44.668Z,80.40
2018-07-11T02:38:48.070Z,80.50
2018-07-11T02:39:51.485Z,80.60
2018-07-11T02:40:55.953Z,80.60
2018-07-11T02:45:09.585Z,81.40
2018-07-11T02:46:14.000Z,81.50
2018-07-11T02:50:33.337Z,81.60
2018-07-11T02:51:36.756Z,81.70
2018-07-11T02:52:40.362Z,81.70
2018-07-11T02:53:43.755Z,81.80
2018-07-11T02:54:47.151Z,81.90
2018-07-11T02:59:01.468Z,82.20
2018-07-11T03:00:05.796Z,82.40
2018-07-11T03:01:10.142Z,82.50
2018-07-11T03:02:13.567Z,82.50
2018-07-11T03:03:17.305Z,82.60
2018-07-11T03:04:20.703Z,82.60
2018-07-11T03:06:29.469Z,82.70
2018-07-11T03:07:32.856Z,82.70
2018-07-11T03:08:37.727Z,82.80
2018-07-11T03:09:41.107Z,83.00
2018-07-11T03:11:48.447Z,83.30
2018-07-11T03:12:51.870Z,83.40
2018-07-11T03:13:55.283Z,83.60
2018-07-11T03:14:58.671Z,83.80
2018-07-11T03:16:03.337Z,84.00
2018-07-11T03:17:06.759Z,84.30
2018-07-11T03:19:13.311Z,84.60
2018-07-11T03:20:17.983Z,84.70
2018-07-11T03:21:22.660Z,85.00
2018-07-11T03:24:32.236Z,85.50
2018-07-11T03:25:36.762Z,85.60
2018-07-11T03:26:40.211Z,85.90
2018-07-11T03:27:43.598Z,86.10
2018-07-11T03:28:46.979Z,86.30
2018-07-11T03:30:54.595Z,86.60
2018-07-11T03:31:58.023Z,86.90
2018-07-11T03:33:01.415Z,87.20
2018-07-11T03:34:04.795Z,87.50
2018-07-11T03:35:09.590Z,87.80
2018-07-11T03:36:15.514Z,87.90
2018-07-11T03:37:18.927Z,88.10
2018-07-11T03:38:22.320Z,88.20
2018-07-11T03:39:25.711Z,88.50
2018-07-11T03:40:30.213Z,88.50
2018-07-11T03:41:33.619Z,88.70
2018-07-11T03:42:37.012Z,88.90
2018-07-11T03:43:40.408Z,89.10
2018-07-11T03:45:46.891Z,89.70
2018-07-11T03:46:50.347Z,89.90
2018-07-11T03:47:53.939Z,90.00
2018-07-11T03:48:57.331Z,90.10
2018-07-11T03:50:00.727Z,90.10
2018-07-11T03:53:11.087Z,90.40
2018-07-11T03:54:14.732Z,90.40
2018-07-11T03:55:19.136Z,90.50
2018-07-11T03:56:23.497Z,90.50
2018-07-11T03:57:26.904Z,90.40
2018-07-11T03:58:30.284Z,90.40
2018-07-11T03:59:33.668Z,90.70
2018-07-11T04:01:42.291Z,90.40
2018-07-11T04:02:45.682Z,90.70
2018-07-11T04:03:49.111Z,90.30
2018-07-11T04:04:52.542Z,90.30
2018-07-11T04:05:57.048Z,90.30
2018-07-11T04:07:00.459Z,90.30
2018-07-11T04:08:03.844Z,90.20
2018-07-11T04:09:07.231Z,90.20
2018-07-11T04:10:11.771Z,90.20
2018-07-11T04:11:16.769Z,90.10
2018-07-11T04:12:20.284Z,90.00
2018-07-11T04:13:23.664Z,89.90
2018-07-11T04:14:27.047Z,89.70
2018-07-11T04:15:32.235Z,89.50
2018-07-11T04:16:35.676Z,89.50
2018-07-11T04:17:39.067Z,89.30
2018-07-11T04:18:42.451Z,89.30
2018-07-11T04:19:45.871Z,89.40
2018-07-11T04:21:53.048Z,89.90
2018-07-11T04:23:59.511Z,90.10
2018-07-11T04:25:02.973Z,90.10
2018-07-11T04:26:07.447Z,90.20
2018-07-11T04:27:10.923Z,90.20
2018-07-11T04:28:14.332Z,90.50
2018-07-11T04:29:18.039Z,90.20
2018-07-11T04:30:22.383Z,90.10
2018-07-11T04:32:29.543Z,90.30
2018-07-11T04:33:33.115Z,90.40
2018-07-11T04:34:36.500Z,90.50
2018-07-11T04:35:41.029Z,90.60
2018-07-11T04:37:47.612Z,90.50
2018-07-11T04:38:51.355Z,90.70
2018-07-11T04:39:54.746Z,90.80
2018-07-11T04:40:59.088Z,90.80
2018-07-11T04:43:05.691Z,91.00
2018-07-11T04:45:13.309Z,91.20
2018-07-11T04:46:17.761Z,91.30
2018-07-11T04:48:24.276Z,91.50
2018-07-11T04:49:27.675Z,91.50
2018-07-11T04:50:32.191Z,91.60
2018-07-11T04:51:35.758Z,91.60
2018-07-11T04:52:39.189Z,91.70
2018-07-11T04:53:42.911Z,91.70
2018-07-11T04:54:46.303Z,91.80
2018-07-11T04:55:52.694Z,91.80
2018-07-11T04:56:56.120Z,92.10
2018-07-11T04:57:59.511Z,91.80
2018-07-11T04:59:02.928Z,91.80
2018-07-11T05:01:11.527Z,92.00
2018-07-11T05:03:18.035Z,92.00
2018-07-11T05:04:21.427Z,92.10
2018-07-11T05:05:25.995Z,92.10
2018-07-11T05:06:30.104Z,92.10
2018-07-11T05:08:36.624Z,92.00
2018-07-11T05:09:40.052Z,92.00
2018-07-11T05:10:44.591Z,91.80
2018-07-11T05:11:48.028Z,92.10
2018-07-11T05:12:51.520Z,91.80
2018-07-11T05:13:54.919Z,91.90
2018-07-11T05:14:58.311Z,92.00
2018-07-11T05:16:02.964Z,91.90
2018-07-11T05:17:06.403Z,91.90
2018-07-11T05:18:09.787Z,91.90
2018-07-11T05:19:13.191Z,92.00
2018-07-11T05:21:21.377Z,92.00
2018-07-11T05:23:27.948Z,92.20
2018-07-11T05:24:31.328Z,92.30
2018-07-11T05:25:35.727Z,92.40
2018-07-11T05:28:45.415Z,92.50
2018-07-11T05:30:53.053Z,92.60
2018-07-11T05:31:56.474Z,92.60
2018-07-11T05:32:59.920Z,92.70
2018-07-11T05:34:03.343Z,92.70
2018-07-11T05:35:09.539Z,92.80
2018-07-11T05:36:15.020Z,92.80
2018-07-11T05:38:21.556Z,92.80
2018-07-11T05:39:24.931Z,92.70
2018-07-11T05:40:29.441Z,92.70
2018-07-11T05:41:32.868Z,92.60
2018-07-11T05:42:36.272Z,92.60
2018-07-11T05:43:39.655Z,92.60
2018-07-11T05:44:43.047Z,92.70
2018-07-11T05:46:54.938Z,92.70
2018-07-11T05:47:58.379Z,92.70
2018-07-11T05:49:01.781Z,92.80
2018-07-11T05:50:06.304Z,92.90
2018-07-11T05:52:13.735Z,93.30
2018-07-11T05:53:17.093Z,93.20
2018-07-11T05:54:20.474Z,93.30
2018-07-11T05:55:24.613Z,93.40
2018-07-11T05:56:28.400Z,93.90
2018-07-11T05:57:31.844Z,93.70
2018-07-11T05:58:35.235Z,93.70
2018-07-11T05:59:38.672Z,93.70
2018-07-11T06:00:43.187Z,93.70
2018-07-11T06:01:46.616Z,93.80
2018-07-11T06:02:50.041Z,93.80
2018-07-11T06:04:56.542Z,93.70
2018-07-11T06:06:00.911Z,93.80
2018-07-11T06:07:04.340Z,93.80
2018-07-11T06:08:07.767Z,94.00
2018-07-11T06:09:11.163Z,94.00
2018-07-11T06:10:15.657Z,94.00
2018-07-11T06:11:23.501Z,94.00
2018-07-11T06:12:26.951Z,94.00
2018-07-11T06:13:30.409Z,93.90
2018-07-11T06:14:33.759Z,93.80
2018-07-11T06:15:38.840Z,93.80
2018-07-11T06:16:42.764Z,93.70
2018-07-11T06:18:49.699Z,93.70
2018-07-11T06:19:53.099Z,93.60
2018-07-11T06:20:57.452Z,93.60
2018-07-11T06:22:00.855Z,93.70
2018-07-11T06:23:04.334Z,93.70
2018-07-11T06:24:08.051Z,93.70
2018-07-11T06:25:12.400Z,93.70
2018-07-11T06:26:16.845Z,93.90
2018-07-11T06:27:20.247Z,93.60
2018-07-11T06:28:23.647Z,93.60
2018-07-11T06:29:27.065Z,93.80
2018-07-11T06:34:43.653Z,93.30
2018-07-11T06:35:48.096Z,93.20
2018-07-11T06:38:57.879Z,92.90
2018-07-11T06:40:01.263Z,93.00
2018-07-11T06:41:06.148Z,93.00
2018-07-11T06:42:09.643Z,93.00
2018-07-11T06:44:16.188Z,93.00
2018-07-11T06:45:20.704Z,92.90
2018-07-11T06:47:30.346Z,92.90
2018-07-11T06:48:33.754Z,92.90
2018-07-11T06:49:37.158Z,92.90
2018-07-11T06:50:41.718Z,92.90
2018-07-11T06:51:45.171Z,92.80
2018-07-11T06:52:48.567Z,92.80
2018-07-11T06:53:51.999Z,92.80
2018-07-11T06:54:55.959Z,92.80
2018-07-11T06:56:00.627Z,92.70
2018-07-11T06:57:04.051Z,92.70
2018-07-11T06:58:07.672Z,92.70
2018-07-11T06:59:11.101Z,93.00
2018-07-11T07:00:15.650Z,92.70
2018-07-11T07:01:20.182Z,92.70
2018-07-11T07:02:23.588Z,92.70
2018-07-11T07:03:27.050Z,92.70
2018-07-11T07:04:30.448Z,92.70
2018-07-11T07:05:34.913Z,92.70
2018-07-11T07:06:38.348Z,92.60
2018-07-11T07:07:41.751Z,92.60
2018-07-11T07:09:48.240Z,92.70
2018-07-11T07:10:52.752Z,92.60
2018-07-11T07:11:56.168Z,92.60
2018-07-11T07:12:59.589Z,92.60
2018-07-11T07:14:03.004Z,92.60
2018-07-11T07:16:11.711Z,92.70
2018-07-11T07:17:15.146Z,92.70
2018-07-11T07:18:18.695Z,92.70
2018-07-11T07:20:27.096Z,92.80
2018-07-11T07:21:31.148Z,92.80
2018-07-11T07:22:34.809Z,92.80
2018-07-11T07:23:38.251Z,92.90
2018-07-11T07:24:41.695Z,93.20
2018-07-11T07:25:47.140Z,92.90
2018-07-11T07:26:50.604Z,93.00
2018-07-11T07:27:53.989Z,92.90
2018-07-11T07:28:57.457Z,92.80
2018-07-11T07:30:00.799Z,92.70
2018-07-11T07:31:05.441Z,92.70
2018-07-11T07:34:15.042Z,92.80
2018-07-11T07:35:19.808Z,92.80
2018-07-11T07:36:24.365Z,92.80
2018-07-11T07:37:27.807Z,92.90
2018-07-11T07:38:36.547Z,92.90
2018-07-11T07:40:45.002Z,92.80
2018-07-11T07:41:48.399Z,92.60
2018-07-11T07:42:51.860Z,92.40
2018-07-11T07:43:55.283Z,92.30
2018-07-11T07:44:58.679Z,92.40
2018-07-11T07:46:03.357Z,92.40
2018-07-11T07:47:11.115Z,92.30
2018-07-11T07:49:18.324Z,92.30
2018-07-11T07:50:23.265Z,92.30
2018-07-11T07:51:27.728Z,92.20
2018-07-11T07:52:31.144Z,92.30
2018-07-11T07:53:34.779Z,92.30
2018-07-11T07:54:38.171Z,92.40
2018-07-11T07:55:43.035Z,92.50
2018-07-11T07:56:46.471Z,92.60
2018-07-11T07:57:49.868Z,92.60
2018-07-11T07:59:56.354Z,92.10
2018-07-11T08:01:00.935Z,92.10
2018-07-11T08:02:04.383Z,92.00
2018-07-11T08:03:07.839Z,91.80
2018-07-11T08:04:12.027Z,91.90
2018-07-11T08:06:20.614Z,92.20
2018-07-11T08:07:24.195Z,92.00
2018-07-11T08:08:27.607Z,91.90
2018-07-11T08:09:31.004Z,91.90
2018-07-11T08:10:35.311Z,91.80
2018-07-11T08:11:38.726Z,91.70
2018-07-11T08:12:42.171Z,91.60
2018-07-11T08:13:45.559Z,91.40
2018-07-11T08:14:48.951Z,91.50
2018-07-11T08:16:57.183Z,91.30
2018-07-11T08:18:00.596Z,91.30
2018-07-11T08:19:03.995Z,91.30
2018-07-11T08:20:08.171Z,91.30
2018-07-11T08:21:12.857Z,91.30
2018-07-11T08:22:27.607Z,91.30
2018-07-11T08:24:50.867Z,91.50
2018-07-11T08:28:17.831Z,91.00
2018-07-11T08:30:36.952Z,90.90
2018-07-11T08:32:49.499Z,90.00
2018-07-11T08:36:16.653Z,89.60
2018-07-11T08:39:00.592Z,88.90
2018-07-11T08:40:25.134Z,88.50
2018-07-11T08:44:04.343Z,88.60
2018-07-11T08:45:21.562Z,87.50
2018-07-11T08:46:36.343Z,88.10
2018-07-11T08:49:57.039Z,88.30
2018-07-11T08:53:15.319Z,88.30
2018-07-11T08:56:12.708Z,86.50
2018-07-11T08:57:27.641Z,86.40
2018-07-11T08:58:44.139Z,85.80
2018-07-11T08:59:58.634Z,85.50
2018-07-11T09:03:19.147Z,84.80
2018-07-11T09:04:33.920Z,84.70
2018-07-11T09:07:25.912Z,84.30
2018-07-11T09:08:46.387Z,83.30
2018-07-11T09:10:25.503Z,82.50
2018-07-11T09:11:45.555Z,81.50
2018-07-11T09:15:10.871Z,81.00
2018-07-11T09:16:27.573Z,80.40
2018-07-11T09:19:45.307Z,79.60
2018-07-11T09:23:06.843Z,79.10
2018-07-11T09:24:35.072Z,78.30
2018-07-11T09:25:39.391Z,78.10
2018-07-11T09:28:48.989Z,77.40
2018-07-11T09:29:52.383Z,76.60
2018-07-11T09:30:56.828Z,75.80
2018-07-11T09:32:00.311Z,75.30
2018-07-11T09:35:11.735Z,74.40
2018-07-11T09:36:16.194Z,74.60
2018-07-11T09:37:19.601Z,74.70
2018-07-11T09:40:30.241Z,74.10
2018-07-11T09:41:33.640Z,73.70
2018-07-11T09:42:37.028Z,73.70
2018-07-11T09:43:40.415Z,73.90
2018-07-11T09:44:44.163Z,73.50
2018-07-11T09:45:48.616Z,73.50
2018-07-11T09:46:53.310Z,72.70
2018-07-11T09:47:56.711Z,72.70
2018-07-11T09:49:00.152Z,73.10
2018-07-11T09:50:03.570Z,73.20
2018-07-11T09:51:08.895Z,72.90
2018-07-11T09:52:12.404Z,72.90
2018-07-11T09:53:15.749Z,72.80
2018-07-11T09:54:19.161Z,72.70
2018-07-11T09:55:23.938Z,72.60
2018-07-11T09:56:28.797Z,72.50
2018-07-11T09:57:33.462Z,72.30
2018-07-11T10:01:50.007Z,71.60
2018-07-11T10:02:53.399Z,71.20
2018-07-11T10:03:57.737Z,70.60
2018-07-11T10:05:01.148Z,69.40
2018-07-11T10:09:14.848Z,67.30
2018-07-11T10:10:20.684Z,67.30
2018-07-11T10:11:25.241Z,67.40
2018-07-11T10:13:31.808Z,67.60
2018-07-11T10:14:35.216Z,67.00
2018-07-11T10:16:45.368Z,65.30
2018-07-11T10:19:00.020Z,64.10
2018-07-11T10:20:03.738Z,63.80
2018-07-11T10:21:08.068Z,64.00
2018-07-11T10:22:11.647Z,64.00
2018-07-11T10:23:15.053Z,64.30
2018-07-11T10:24:18.439Z,64.50
2018-07-11T10:25:23.515Z,64.60
2018-07-11T10:26:28.279Z,63.70
2018-07-11T10:27:31.750Z,63.50
2018-07-11T10:28:35.151Z,62.80
2018-07-11T10:29:38.635Z,62.40
2018-07-11T10:30:43.083Z,62.00
2018-07-11T10:32:49.607Z,62.10
2018-07-11T10:33:53.026Z,62.30
2018-07-11T10:34:56.480Z,60.90
2018-07-11T10:36:01.337Z,60.80
2018-07-11T10:38:07.993Z,60.70
2018-07-11T10:39:11.405Z,59.70
2018-07-11T10:40:15.613Z,59.20
2018-07-11T10:41:19.927Z,59.20
2018-07-11T10:42:23.324Z,59.20
2018-07-11T10:43:26.737Z,59.30
2018-07-11T10:44:30.140Z,59.30
2018-07-11T10:45:35.442Z,59.10
2018-07-11T10:46:38.851Z,59.10
2018-07-11T10:47:42.264Z,58.70
2018-07-11T10:48:45.659Z,58.70
2018-07-11T10:49:49.037Z,58.70
2018-07-11T10:50:53.410Z,58.90
2018-07-11T10:51:56.807Z,58.10
2018-07-11T10:53:00.227Z,58.00
2018-07-11T10:54:03.611Z,57.70
2018-07-11T10:55:08.203Z,57.60
2018-07-11T10:56:12.690Z,58.00
2018-07-11T10:57:16.380Z,57.60
2018-07-11T10:58:20.084Z,57.50
2018-07-11T10:59:23.471Z,56.50
2018-07-11T11:00:36.661Z,56.70
2018-07-11T11:01:32.761Z,56.50
2018-07-11T11:02:36.113Z,55.90
2018-07-11T11:03:39.491Z,55.90
2018-07-11T11:04:42.912Z,56.00
2018-07-11T11:07:53.871Z,55.00
2018-07-11T11:08:57.235Z,54.80
2018-07-11T11:10:00.674Z,54.50
2018-07-11T11:11:05.249Z,54.50
2018-07-11T11:12:08.714Z,53.90
2018-07-11T11:13:12.083Z,53.90
2018-07-11T11:14:15.483Z,54.20
2018-07-11T11:15:20.054Z,54.10
2018-07-11T11:16:24.509Z,53.90
2018-07-11T11:17:27.943Z,53.80
2018-07-11T11:19:34.407Z,53.60
2018-07-11T11:20:38.858Z,53.20
2018-07-11T11:21:42.272Z,52.90
2018-07-11T11:22:45.651Z,52.60
2018-07-11T11:23:49.047Z,52.10
2018-07-11T11:24:52.451Z,51.90
2018-07-11T11:25:57.566Z,51.90
2018-07-11T11:27:00.971Z,52.00
2018-07-11T11:29:07.451Z,51.90
2018-07-11T11:30:12.105Z,51.90
2018-07-11T11:31:17.570Z,52.20
2018-07-11T11:33:24.054Z,52.10
2018-07-11T11:34:27.435Z,51.80
2018-07-11T11:37:38.114Z,51.80
2018-07-11T11:38:41.503Z,52.00
2018-07-11T11:39:44.927Z,51.80
2018-07-11T11:40:49.303Z,51.30
2018-07-11T11:41:53.727Z,50.40
2018-07-11T11:42:57.163Z,50.10
2018-07-11T11:44:01.664Z,50.10
2018-07-11T11:45:05.911Z,49.90
2018-07-11T11:46:10.498Z,49.80
2018-07-11T11:48:17.010Z,50.00
2018-07-11T11:49:20.636Z,50.10
2018-07-11T11:50:25.016Z,50.30
2018-07-11T11:51:29.363Z,50.00
2018-07-11T11:52:32.748Z,49.70
2018-07-11T11:53:36.151Z,49.60
2018-07-11T11:54:39.539Z,49.80
2018-07-11T11:55:44.510Z,49.60
2018-07-11T11:56:47.923Z,49.40
2018-07-11T11:57:52.020Z,48.80
2018-07-11T11:58:55.393Z,49.20
2018-07-11T11:59:58.775Z,48.60
2018-07-11T12:01:04.043Z,48.60
2018-07-11T12:02:07.460Z,48.10
2018-07-11T12:03:10.852Z,47.60
2018-07-11T12:04:14.228Z,47.20
2018-07-11T12:07:25.567Z,46.40
2018-07-11T12:08:28.945Z,46.20
2018-07-11T12:09:32.952Z,46.00
2018-07-11T12:10:37.433Z,46.00
2018-07-11T12:11:41.055Z,45.90
2018-07-11T12:12:44.442Z,45.90
2018-07-11T12:13:47.823Z,46.00
2018-07-11T12:14:51.215Z,46.20
2018-07-11T12:15:56.184Z,46.00
2018-07-11T12:16:59.578Z,46.00
2018-07-11T12:19:06.073Z,45.80
2018-07-11T12:20:10.547Z,44.70
2018-07-11T12:21:15.218Z,44.60
2018-07-11T12:22:26.199Z,43.90
2018-07-11T12:23:29.699Z,44.00
2018-07-11T12:24:33.091Z,43.30
2018-07-11T12:26:40.411Z,43.10
2018-07-11T12:27:43.788Z,43.30
2018-07-11T12:28:47.200Z,43.80
2018-07-11T12:29:51.627Z,44.20
2018-07-11T12:30:56.126Z,44.60
2018-07-11T12:31:59.531Z,44.60
2018-07-11T12:33:02.923Z,44.40
2018-07-11T12:34:06.432Z,44.60
2018-07-11T12:36:14.804Z,44.40
2018-07-11T12:37:18.691Z,44.50
2018-07-11T12:38:22.083Z,44.70
2018-07-11T12:39:25.479Z,44.90
2018-07-11T12:40:30.515Z,44.50
2018-07-11T12:41:33.939Z,44.20
2018-07-11T12:42:37.324Z,44.20
2018-07-11T12:43:40.716Z,43.30
2018-07-11T12:44:44.123Z,43.10
2018-07-11T12:45:48.933Z,43.00
2018-07-11T12:46:52.380Z,43.00
2018-07-11T12:49:05.668Z,43.40
2018-07-11T12:50:10.041Z,42.90
2018-07-11T12:51:16.233Z,42.90
2018-07-11T12:52:19.635Z,42.80
2018-07-11T12:53:23.015Z,43.10
2018-07-11T12:54:26.480Z,43.10
2018-07-11T12:55:30.915Z,43.20
2018-07-11T12:56:34.357Z,43.20
2018-07-11T12:57:37.767Z,43.20
2018-07-11T12:58:41.172Z,43.00
2018-07-11T12:59:44.575Z,43.00
2018-07-11T13:00:49.606Z,43.00
2018-07-11T13:01:53.615Z,43.00
2018-07-11T13:04:00.271Z,43.30
2018-07-11T13:05:03.903Z,43.30
2018-07-11T13:06:08.444Z,43.10
2018-07-11T13:07:12.132Z,43.20
2018-07-11T13:08:17.031Z,43.40
2018-07-11T13:09:20.431Z,43.60
2018-07-11T13:10:24.870Z,43.80
2018-07-11T13:11:29.122Z,44.10
2018-07-11T13:12:32.524Z,44.20
2018-07-11T13:13:35.930Z,44.30
2018-07-11T13:14:39.326Z,44.20
2018-07-11T13:15:43.669Z,44.20
2018-07-11T13:16:47.157Z,44.30
2018-07-11T13:18:53.819Z,44.70
2018-07-11T13:21:01.424Z,45.40
2018-07-11T13:22:04.943Z,44.80
2018-07-11T13:23:08.359Z,45.00
2018-07-11T13:24:11.757Z,44.90
2018-07-11T13:25:16.188Z,45.10
2018-07-11T13:26:20.629Z,45.40
2018-07-11T13:27:24.056Z,45.30
2018-07-11T13:28:27.451Z,45.00
2018-07-11T13:29:30.848Z,44.90
2018-07-11T13:30:35.166Z,45.10
2018-07-11T13:31:38.602Z,45.20
2018-07-11T13:32:41.997Z,45.50
2018-07-11T13:33:45.396Z,46.00
2018-07-11T13:34:48.803Z,46.20
2018-07-11T13:35:53.279Z,46.30
2018-07-11T13:36:56.711Z,46.20
2018-07-11T13:39:04.793Z,46.80
2018-07-11T13:40:08.434Z,47.00
2018-07-11T13:41:13.308Z,46.90
2018-07-11T13:42:16.767Z,47.00
2018-07-11T13:43:20.163Z,47.20
2018-07-11T13:44:23.551Z,47.20
2018-07-11T13:45:28.218Z,47.40
2018-07-11T13:46:31.647Z,47.70
2018-07-11T13:47:35.059Z,47.90
2018-07-11T13:48:38.442Z,48.00
2018-07-11T13:49:41.835Z,48.10
2018-07-11T13:51:49.327Z,48.70
2018-07-11T13:52:52.745Z,48.10
2018-07-11T13:53:56.140Z,48.20
2018-07-11T13:54:59.543Z,48.30
2018-07-11T13:56:03.813Z,48.30
2018-07-11T13:57:07.247Z,48.50
2018-07-11T13:58:11.019Z,48.50
2018-07-11T13:59:14.415Z,48.30
2018-07-11T14:00:19.222Z,48.20
2018-07-11T14:01:23.763Z,48.10
2018-07-11T14:02:27.155Z,48.20
2018-07-11T14:03:30.556Z,48.40
2018-07-11T14:04:33.955Z,48.50
2018-07-11T14:06:41.199Z,48.70
2018-07-11T14:07:44.600Z,48.90
2018-07-11T14:08:47.996Z,49.00
2018-07-11T14:09:51.385Z,48.90
2018-07-11T14:10:55.950Z,49.00
2018-07-11T14:11:59.391Z,49.20
2018-07-11T14:15:10.318Z,49.40
2018-07-11T14:16:14.649Z,49.50
2018-07-11T14:17:18.069Z,49.60
2018-07-11T14:19:24.680Z,49.80
2018-07-11T14:20:29.737Z,49.80
2018-07-11T14:21:33.645Z,49.90
2018-07-11T14:22:37.530Z,49.90
2018-07-11T14:23:42.131Z,49.90
2018-07-11T14:24:46.004Z,50.00
2018-07-11T14:25:50.439Z,50.10
2018-07-11T14:29:02.083Z,50.40
2018-07-11T14:30:06.347Z,50.40
2018-07-11T14:31:11.682Z,50.40
2018-07-11T14:32:15.200Z,50.50
2018-07-11T14:33:18.639Z,50.60
2018-07-11T14:34:22.062Z,50.70
2018-07-11T14:35:27.072Z,50.70
2018-07-11T14:36:31.331Z,50.70
2018-07-11T14:37:34.727Z,50.90
2018-07-11T14:38:38.116Z,50.80
2018-07-11T14:39:41.502Z,51.00
2018-07-11T14:40:45.645Z,51.10
2018-07-11T14:42:52.140Z,51.40
2018-07-11T14:43:56.591Z,51.50
2018-07-11T14:45:00.014Z,51.50
2018-07-11T14:46:05.167Z,51.60
2018-07-11T14:47:12.808Z,51.60
2018-07-11T14:48:16.689Z,51.50
2018-07-11T14:49:21.283Z,51.50
2018-07-11T14:50:25.823Z,51.60
2018-07-11T14:51:30.139Z,51.80
2018-07-11T14:52:33.431Z,51.70
2018-07-11T14:53:36.843Z,51.80
2018-07-11T14:55:44.962Z,52.00
2018-07-11T14:56:48.372Z,52.10
2018-07-11T14:57:51.771Z,52.20
2018-07-11T14:58:57.111Z,52.30
2018-07-11T15:00:00.533Z,52.40
2018-07-11T15:01:05.059Z,52.50
2018-07-11T15:02:08.492Z,52.70
2018-07-11T15:03:11.889Z,52.70
2018-07-11T15:04:15.271Z,52.70
2018-07-11T15:05:19.803Z,52.80
2018-07-11T15:06:24.772Z,52.90
2018-07-11T15:07:28.712Z,53.10
2018-07-11T15:08:32.222Z,53.10
2018-07-11T15:10:40.242Z,53.70
2018-07-11T15:11:44.075Z,54.10
2018-07-11T15:12:47.771Z,55.10
2018-07-11T15:13:51.271Z,56.40
2018-07-11T15:14:54.664Z,57.00
2018-07-11T15:15:59.078Z,57.20
2018-07-11T15:17:02.530Z,57.70
2018-07-11T15:18:05.928Z,59.30
2018-07-11T15:19:09.400Z,62.80
2018-07-11T15:20:13.740Z,65.30
2018-07-11T15:21:18.843Z,69.10
2018-07-11T15:22:22.277Z,71.90
2018-07-11T15:23:25.663Z,75.00
2018-07-11T15:24:29.228Z,78.40
2018-07-11T15:25:34.236Z,81.30
2018-07-11T15:27:40.813Z,86.40
2018-07-11T15:28:44.199Z,88.50
2018-07-11T15:29:47.597Z,90.10
2018-07-11T15:30:52.003Z,90.80
2018-07-11T15:32:58.535Z,91.50
2018-07-11T15:34:01.959Z,92.10
2018-07-11T15:35:06.436Z,92.30
2018-07-11T15:36:11.293Z,92.50
2018-07-11T15:37:14.707Z,92.90
2018-07-11T15:39:21.275Z,93.20
2018-07-11T15:41:29.354Z,93.60
2018-07-11T15:42:32.792Z,93.80
2018-07-11T15:43:36.167Z,94.00
2018-07-11T15:44:39.560Z,94.10
2018-07-11T15:45:43.700Z,94.10
2018-07-11T15:48:53.319Z,94.70
2018-07-11T15:49:56.716Z,94.40
2018-07-11T15:51:01.245Z,94.50
2018-07-11T15:52:04.633Z,94.60
2018-07-11T15:53:08.059Z,94.70
2018-07-11T15:55:16.444Z,94.80
2018-07-11T15:56:21.511Z,95.00
2018-07-11T15:57:37.855Z,95.10
2018-07-11T15:58:44.569Z,95.10
2018-07-11T15:59:53.322Z,95.10
2018-07-11T16:01:04.679Z,94.90
2018-07-11T16:04:20.299Z,95.00
2018-07-11T16:05:25.889Z,94.90
2018-07-11T16:06:29.594Z,94.80
2018-07-11T16:07:35.291Z,94.60
2018-07-11T16:11:00.654Z,94.40
2018-07-11T16:12:04.101Z,94.10
2018-07-11T16:13:07.607Z,94.00
2018-07-11T16:14:11.483Z,94.00
2018-07-11T16:15:15.959Z,93.90
2018-07-11T16:16:20.448Z,94.10
2018-07-11T16:19:30.117Z,94.20
2018-07-11T16:20:34.592Z,94.30
2018-07-11T16:21:38.019Z,94.40
2018-07-11T16:22:41.427Z,94.30
2018-07-11T16:24:47.992Z,93.80
2018-07-11T16:26:55.212Z,93.90
2018-07-11T16:27:58.639Z,94.00
2018-07-11T16:29:02.100Z,94.00
2018-07-11T16:30:05.589Z,94.00
2018-07-11T16:31:10.133Z,93.90
2018-07-11T16:35:24.584Z,94.10
2018-07-11T16:37:31.753Z,94.40
2018-07-11T16:38:35.179Z,94.20
2018-07-11T16:39:38.627Z,94.00
2018-07-11T16:40:43.038Z,94.20
2018-07-11T16:43:52.791Z,93.90
2018-07-11T16:44:57.063Z,93.90
2018-07-11T16:46:01.867Z,93.90
2018-07-11T16:47:06.828Z,93.80
2018-07-11T16:48:10.313Z,94.00